Sect Las Pelas, Puerto Rico
Current Conditions -  °F | °C
As of 8:50 AM on Tuesday 21 Oct 2014 (Local Time) from TJBQ Reporting Station
Clear Clear  
Wind Chill: 82°   Ceiling: Unl
Heat Index: 88°   Visibility: 10mi
Dew Point: 73°   Wind: 10mph
Humidity: 74%   Direction: 100°E
Pressure: 29.99"   Gusts: NA
Location:  18.0306°N, 66.8507°W
Report Text: TJBQ 211250Z 10009KT 10SM SKC 28/23 A2999 RMK RWY08- ATIS T
Loading
Personal Weather Stations






























Interactive Weather Map
Tropical Storm Tracking
New forecast layout! Learn more

10-Day Weather Forecast

Advertisements
Track Severe Weather on mobile